<?xml version="1.0" encoding="UTF-8" standalone="no" ?>
<gpx xmlns="http://www.topografix.com/GPX/1/1" xmlns:xsi="http://www.w3.org/2001/XMLSchema-instance" xsi:schemaLocation="http://www.topografix.com/GPX/1/1 http://www.topografix.com/GPX/1/1/gpx.xsd" version="1.1" creator="VisuGPX - https://www.visugpx.com">
  <metadata>
    <name>Boucle du Rocher de Trenze au départ de Génolhac</name>
  </metadata>
  <wpt lat="44.34824" lon="3.92839">
    <ele>820</ele>
    <name><![CDATA[Virage n°6 ou de Montclar]]></name>
  </wpt>
  <wpt lat="44.34837" lon="3.92183">
    <ele>857</ele>
    <name><![CDATA[Vieille ferme de Monclar]]></name>
  </wpt>
  <wpt lat="44.3398" lon="3.92032">
    <ele>921</ele>
    <name><![CDATA[Le Chastelas]]></name>
  </wpt>
  <wpt lat="44.3431" lon="3.91654">
    <ele>850</ele>
    <name><![CDATA[Carrefour des rochers de Trenze]]></name>
  </wpt>
  <wpt lat="44.34868" lon="3.90717">
    <ele>1192</ele>
    <name><![CDATA[Sous les rochers]]></name>
  </wpt>
  <wpt lat="44.34843" lon="3.90534">
    <ele>1091</ele>
    <name><![CDATA[Rocher de Trenze]]></name>
  </wpt>
  <wpt lat="44.36256" lon="3.89284">
    <ele>1373</ele>
    <name><![CDATA[Chemin des Bouzèdes]]></name>
  </wpt>
  <wpt lat="44.36214" lon="3.90782">
    <ele>1287</ele>
    <name><![CDATA[Hameau des Bouzedes]]></name>
  </wpt>
  <wpt lat="44.36155" lon="3.90907">
    <ele>1290</ele>
    <name><![CDATA[Deux choix possible]]></name>
  </wpt>
  <wpt lat="44.35747" lon="3.91347">
    <ele>1278</ele>
    <name><![CDATA[GR]]></name>
  </wpt>
  <wpt lat="44.35117" lon="3.92623">
    <ele>900</ele>
    <name><![CDATA[Carrefour GR-sentier]]></name>
  </wpt>
  <wpt lat="44.35075" lon="3.92967">
    <ele>842</ele>
    <name><![CDATA[route]]></name>
  </wpt>
  <wpt lat="44.34833" lon="3.92835">
    <ele>825</ele>
    <name><![CDATA[Virage n°6 ou de Montclar]]></name>
  </wpt>
  <trk>
    <name><![CDATA[Boucle du Rocher de Trenze au départ de Génolhac]]></name>
    <trkseg>
      <trkpt lat="44.34824" lon="3.92839">
        <ele>820</ele>
        <time>2021-05-19T08:18:38+02:00</time>
      </trkpt>
      <trkpt lat="44.34816" lon="3.92779">
        <ele>823</ele>
        <time>2021-05-19T08:18:43+02:00</time>
      </trkpt>
      <trkpt lat="44.34796" lon="3.92652">
        <ele>821</ele>
        <time>2021-05-19T08:18:48+02:00</time>
      </trkpt>
      <trkpt lat="44.34805" lon="3.92562">
        <ele>827</ele>
        <time>2021-05-19T08:18:53+02:00</time>
      </trkpt>
      <trkpt lat="44.34832" lon="3.92454">
        <ele>840</ele>
        <time>2021-05-19T08:18:58+02:00</time>
      </trkpt>
      <trkpt lat="44.34865" lon="3.92404">
        <ele>848</ele>
        <time>2021-05-19T08:19:03+02:00</time>
      </trkpt>
      <trkpt lat="44.34897" lon="3.92365">
        <ele>855</ele>
        <time>2021-05-19T08:19:08+02:00</time>
      </trkpt>
      <trkpt lat="44.34912" lon="3.92335">
        <ele>858</ele>
        <time>2021-05-19T08:19:13+02:00</time>
      </trkpt>
      <trkpt lat="44.34899" lon="3.92273">
        <ele>861</ele>
        <time>2021-05-19T08:19:18+02:00</time>
      </trkpt>
      <trkpt lat="44.34837" lon="3.92183">
        <ele>857</ele>
        <time>2021-05-19T08:19:23+02:00</time>
      </trkpt>
      <trkpt lat="44.34759" lon="3.92053">
        <ele>860</ele>
        <time>2021-05-19T08:19:28+02:00</time>
      </trkpt>
      <trkpt lat="44.34677" lon="3.91832">
        <ele>866</ele>
        <time>2021-05-19T08:19:33+02:00</time>
      </trkpt>
      <trkpt lat="44.34641" lon="3.918">
        <ele>866</ele>
        <time>2021-05-19T08:19:38+02:00</time>
      </trkpt>
      <trkpt lat="44.34607" lon="3.91759">
        <ele>869</ele>
        <time>2021-05-19T08:19:43+02:00</time>
      </trkpt>
      <trkpt lat="44.3452" lon="3.91806">
        <ele>868</ele>
        <time>2021-05-19T08:19:48+02:00</time>
      </trkpt>
      <trkpt lat="44.3449" lon="3.91844">
        <ele>868</ele>
        <time>2021-05-19T08:19:53+02:00</time>
      </trkpt>
      <trkpt lat="44.34461" lon="3.91883">
        <ele>870</ele>
        <time>2021-05-19T08:19:58+02:00</time>
      </trkpt>
      <trkpt lat="44.34414" lon="3.91863">
        <ele>871</ele>
        <time>2021-05-19T08:20:03+02:00</time>
      </trkpt>
      <trkpt lat="44.34328" lon="3.91835">
        <ele>871</ele>
        <time>2021-05-19T08:20:08+02:00</time>
      </trkpt>
      <trkpt lat="44.34265" lon="3.91839">
        <ele>876</ele>
        <time>2021-05-19T08:20:13+02:00</time>
      </trkpt>
      <trkpt lat="44.34234" lon="3.91866">
        <ele>878</ele>
        <time>2021-05-19T08:20:18+02:00</time>
      </trkpt>
      <trkpt lat="44.34223" lon="3.91905">
        <ele>881</ele>
        <time>2021-05-19T08:20:23+02:00</time>
      </trkpt>
      <trkpt lat="44.34192" lon="3.91932">
        <ele>878</ele>
        <time>2021-05-19T08:20:28+02:00</time>
      </trkpt>
      <trkpt lat="44.34168" lon="3.91906">
        <ele>878</ele>
        <time>2021-05-19T08:20:33+02:00</time>
      </trkpt>
      <trkpt lat="44.34102" lon="3.91937">
        <ele>884</ele>
        <time>2021-05-19T08:20:38+02:00</time>
      </trkpt>
      <trkpt lat="44.34065" lon="3.91964">
        <ele>893</ele>
        <time>2021-05-19T08:20:43+02:00</time>
      </trkpt>
      <trkpt lat="44.34041" lon="3.92017">
        <ele>904</ele>
        <time>2021-05-19T08:20:48+02:00</time>
      </trkpt>
      <trkpt lat="44.34021" lon="3.92036">
        <ele>911</ele>
        <time>2021-05-19T08:20:53+02:00</time>
      </trkpt>
      <trkpt lat="44.3398" lon="3.92032">
        <ele>921</ele>
        <time>2021-05-19T08:20:58+02:00</time>
      </trkpt>
      <trkpt lat="44.34023" lon="3.9203">
        <ele>910</ele>
        <time>2021-05-19T08:21:03+02:00</time>
      </trkpt>
      <trkpt lat="44.34066" lon="3.91962">
        <ele>892</ele>
        <time>2021-05-19T08:21:08+02:00</time>
      </trkpt>
      <trkpt lat="44.3417" lon="3.91902">
        <ele>877</ele>
        <time>2021-05-19T08:21:13+02:00</time>
      </trkpt>
      <trkpt lat="44.34186" lon="3.9185">
        <ele>872</ele>
        <time>2021-05-19T08:21:18+02:00</time>
      </trkpt>
      <trkpt lat="44.34211" lon="3.91828">
        <ele>871</ele>
        <time>2021-05-19T08:21:23+02:00</time>
      </trkpt>
      <trkpt lat="44.34255" lon="3.91795">
        <ele>866</ele>
        <time>2021-05-19T08:21:28+02:00</time>
      </trkpt>
      <trkpt lat="44.34309" lon="3.91773">
        <ele>861</ele>
        <time>2021-05-19T08:21:33+02:00</time>
      </trkpt>
      <trkpt lat="44.34333" lon="3.9176">
        <ele>860</ele>
        <time>2021-05-19T08:21:38+02:00</time>
      </trkpt>
      <trkpt lat="44.34303" lon="3.91704">
        <ele>853</ele>
        <time>2021-05-19T08:21:43+02:00</time>
      </trkpt>
      <trkpt lat="44.3431" lon="3.91654">
        <ele>850</ele>
        <time>2021-05-19T08:21:48+02:00</time>
      </trkpt>
      <trkpt lat="44.34337" lon="3.91659">
        <ele>858</ele>
        <time>2021-05-19T08:21:53+02:00</time>
      </trkpt>
      <trkpt lat="44.34366" lon="3.91677">
        <ele>864</ele>
        <time>2021-05-19T08:21:58+02:00</time>
      </trkpt>
      <trkpt lat="44.34381" lon="3.91677">
        <ele>867</ele>
        <time>2021-05-19T08:22:03+02:00</time>
      </trkpt>
      <trkpt lat="44.34386" lon="3.91657">
        <ele>869</ele>
        <time>2021-05-19T08:22:08+02:00</time>
      </trkpt>
      <trkpt lat="44.34435" lon="3.91628">
        <ele>884</ele>
        <time>2021-05-19T08:22:13+02:00</time>
      </trkpt>
      <trkpt lat="44.34475" lon="3.9165">
        <ele>889</ele>
        <time>2021-05-19T08:22:18+02:00</time>
      </trkpt>
      <trkpt lat="44.34528" lon="3.91651">
        <ele>894</ele>
        <time>2021-05-19T08:22:23+02:00</time>
      </trkpt>
      <trkpt lat="44.346" lon="3.9161">
        <ele>906</ele>
        <time>2021-05-19T08:22:28+02:00</time>
      </trkpt>
      <trkpt lat="44.34655" lon="3.91548">
        <ele>930</ele>
        <time>2021-05-19T08:22:33+02:00</time>
      </trkpt>
      <trkpt lat="44.34686" lon="3.91513">
        <ele>943</ele>
        <time>2021-05-19T08:22:38+02:00</time>
      </trkpt>
      <trkpt lat="44.34717" lon="3.91488">
        <ele>949</ele>
        <time>2021-05-19T08:22:43+02:00</time>
      </trkpt>
      <trkpt lat="44.34738" lon="3.91469">
        <ele>953</ele>
        <time>2021-05-19T08:22:48+02:00</time>
      </trkpt>
      <trkpt lat="44.34752" lon="3.91414">
        <ele>974</ele>
        <time>2021-05-19T08:22:53+02:00</time>
      </trkpt>
      <trkpt lat="44.34764" lon="3.91358">
        <ele>990</ele>
        <time>2021-05-19T08:22:58+02:00</time>
      </trkpt>
      <trkpt lat="44.34791" lon="3.91303">
        <ele>1003</ele>
        <time>2021-05-19T08:23:03+02:00</time>
      </trkpt>
      <trkpt lat="44.34818" lon="3.91261">
        <ele>1012</ele>
        <time>2021-05-19T08:23:08+02:00</time>
      </trkpt>
      <trkpt lat="44.34837" lon="3.91244">
        <ele>1017</ele>
        <time>2021-05-19T08:23:13+02:00</time>
      </trkpt>
      <trkpt lat="44.3479" lon="3.91237">
        <ele>1023</ele>
        <time>2021-05-19T08:23:18+02:00</time>
      </trkpt>
      <trkpt lat="44.34768" lon="3.91253">
        <ele>1020</ele>
        <time>2021-05-19T08:23:23+02:00</time>
      </trkpt>
      <trkpt lat="44.34741" lon="3.91254">
        <ele>1023</ele>
        <time>2021-05-19T08:23:28+02:00</time>
      </trkpt>
      <trkpt lat="44.34738" lon="3.91239">
        <ele>1028</ele>
        <time>2021-05-19T08:23:33+02:00</time>
      </trkpt>
      <trkpt lat="44.34683" lon="3.91234">
        <ele>1036</ele>
        <time>2021-05-19T08:23:38+02:00</time>
      </trkpt>
      <trkpt lat="44.34671" lon="3.91183">
        <ele>1049</ele>
        <time>2021-05-19T08:23:43+02:00</time>
      </trkpt>
      <trkpt lat="44.34664" lon="3.91136">
        <ele>1062</ele>
        <time>2021-05-19T08:23:48+02:00</time>
      </trkpt>
      <trkpt lat="44.34668" lon="3.91113">
        <ele>1070</ele>
        <time>2021-05-19T08:23:53+02:00</time>
      </trkpt>
      <trkpt lat="44.34676" lon="3.91087">
        <ele>1079</ele>
        <time>2021-05-19T08:23:58+02:00</time>
      </trkpt>
      <trkpt lat="44.34698" lon="3.91084">
        <ele>1081</ele>
        <time>2021-05-19T08:24:03+02:00</time>
      </trkpt>
      <trkpt lat="44.34705" lon="3.91041">
        <ele>1093</ele>
        <time>2021-05-19T08:24:08+02:00</time>
      </trkpt>
      <trkpt lat="44.34694" lon="3.90994">
        <ele>1101</ele>
        <time>2021-05-19T08:24:13+02:00</time>
      </trkpt>
      <trkpt lat="44.34709" lon="3.90981">
        <ele>1108</ele>
        <time>2021-05-19T08:24:18+02:00</time>
      </trkpt>
      <trkpt lat="44.34706" lon="3.90969">
        <ele>1109</ele>
        <time>2021-05-19T08:24:23+02:00</time>
      </trkpt>
      <trkpt lat="44.34735" lon="3.90932">
        <ele>1127</ele>
        <time>2021-05-19T08:24:28+02:00</time>
      </trkpt>
      <trkpt lat="44.34765" lon="3.90885">
        <ele>1146</ele>
        <time>2021-05-19T08:24:33+02:00</time>
      </trkpt>
      <trkpt lat="44.34766" lon="3.9085">
        <ele>1155</ele>
        <time>2021-05-19T08:24:38+02:00</time>
      </trkpt>
      <trkpt lat="44.34788" lon="3.90815">
        <ele>1168</ele>
        <time>2021-05-19T08:24:43+02:00</time>
      </trkpt>
      <trkpt lat="44.34818" lon="3.90811">
        <ele>1176</ele>
        <time>2021-05-19T08:24:48+02:00</time>
      </trkpt>
      <trkpt lat="44.34819" lon="3.9076">
        <ele>1187</ele>
        <time>2021-05-19T08:24:53+02:00</time>
      </trkpt>
      <trkpt lat="44.34812" lon="3.90724">
        <ele>1183</ele>
        <time>2021-05-19T08:24:58+02:00</time>
      </trkpt>
      <trkpt lat="44.34843" lon="3.90727">
        <ele>1190</ele>
        <time>2021-05-19T08:25:03+02:00</time>
      </trkpt>
      <trkpt lat="44.34868" lon="3.90717">
        <ele>1192</ele>
        <time>2021-05-19T08:25:08+02:00</time>
      </trkpt>
      <trkpt lat="44.34856" lon="3.9063">
        <ele>1163</ele>
        <time>2021-05-19T08:25:13+02:00</time>
      </trkpt>
      <trkpt lat="44.34843" lon="3.90534">
        <ele>1091</ele>
        <time>2021-05-19T08:25:18+02:00</time>
      </trkpt>
      <trkpt lat="44.34868" lon="3.90717">
        <ele>1192</ele>
        <time>2021-05-19T08:25:23+02:00</time>
      </trkpt>
      <trkpt lat="44.34897" lon="3.90703">
        <ele>1196</ele>
        <time>2021-05-19T08:25:28+02:00</time>
      </trkpt>
      <trkpt lat="44.34927" lon="3.90682">
        <ele>1204</ele>
        <time>2021-05-19T08:25:33+02:00</time>
      </trkpt>
      <trkpt lat="44.34941" lon="3.90684">
        <ele>1205</ele>
        <time>2021-05-19T08:25:38+02:00</time>
      </trkpt>
      <trkpt lat="44.34958" lon="3.90673">
        <ele>1209</ele>
        <time>2021-05-19T08:25:43+02:00</time>
      </trkpt>
      <trkpt lat="44.34972" lon="3.90653">
        <ele>1210</ele>
        <time>2021-05-19T08:25:48+02:00</time>
      </trkpt>
      <trkpt lat="44.34986" lon="3.90635">
        <ele>1209</ele>
        <time>2021-05-19T08:25:53+02:00</time>
      </trkpt>
      <trkpt lat="44.35045" lon="3.90612">
        <ele>1213</ele>
        <time>2021-05-19T08:25:58+02:00</time>
      </trkpt>
      <trkpt lat="44.35061" lon="3.90611">
        <ele>1214</ele>
        <time>2021-05-19T08:26:03+02:00</time>
      </trkpt>
      <trkpt lat="44.35084" lon="3.9059">
        <ele>1220</ele>
        <time>2021-05-19T08:26:08+02:00</time>
      </trkpt>
      <trkpt lat="44.35111" lon="3.90594">
        <ele>1217</ele>
        <time>2021-05-19T08:26:13+02:00</time>
      </trkpt>
      <trkpt lat="44.35137" lon="3.90588">
        <ele>1217</ele>
        <time>2021-05-19T08:26:18+02:00</time>
      </trkpt>
      <trkpt lat="44.3517" lon="3.9058">
        <ele>1215</ele>
        <time>2021-05-19T08:26:23+02:00</time>
      </trkpt>
      <trkpt lat="44.35239" lon="3.90541">
        <ele>1211</ele>
        <time>2021-05-19T08:26:28+02:00</time>
      </trkpt>
      <trkpt lat="44.35283" lon="3.90502">
        <ele>1213</ele>
        <time>2021-05-19T08:26:33+02:00</time>
      </trkpt>
      <trkpt lat="44.35346" lon="3.90466">
        <ele>1211</ele>
        <time>2021-05-19T08:26:38+02:00</time>
      </trkpt>
      <trkpt lat="44.35381" lon="3.90452">
        <ele>1211</ele>
        <time>2021-05-19T08:26:43+02:00</time>
      </trkpt>
      <trkpt lat="44.35422" lon="3.90442">
        <ele>1213</ele>
        <time>2021-05-19T08:26:48+02:00</time>
      </trkpt>
      <trkpt lat="44.35444" lon="3.90433">
        <ele>1216</ele>
        <time>2021-05-19T08:26:53+02:00</time>
      </trkpt>
      <trkpt lat="44.35462" lon="3.90426">
        <ele>1218</ele>
        <time>2021-05-19T08:26:58+02:00</time>
      </trkpt>
      <trkpt lat="44.35487" lon="3.90415">
        <ele>1221</ele>
        <time>2021-05-19T08:27:03+02:00</time>
      </trkpt>
      <trkpt lat="44.35513" lon="3.90394">
        <ele>1224</ele>
        <time>2021-05-19T08:27:08+02:00</time>
      </trkpt>
      <trkpt lat="44.35606" lon="3.90329">
        <ele>1254</ele>
        <time>2021-05-19T08:27:13+02:00</time>
      </trkpt>
      <trkpt lat="44.35677" lon="3.90291">
        <ele>1275</ele>
        <time>2021-05-19T08:27:18+02:00</time>
      </trkpt>
      <trkpt lat="44.35695" lon="3.90286">
        <ele>1278</ele>
        <time>2021-05-19T08:27:23+02:00</time>
      </trkpt>
      <trkpt lat="44.35702" lon="3.90276">
        <ele>1281</ele>
        <time>2021-05-19T08:27:28+02:00</time>
      </trkpt>
      <trkpt lat="44.35716" lon="3.90296">
        <ele>1279</ele>
        <time>2021-05-19T08:27:33+02:00</time>
      </trkpt>
      <trkpt lat="44.35778" lon="3.90293">
        <ele>1287</ele>
        <time>2021-05-19T08:27:38+02:00</time>
      </trkpt>
      <trkpt lat="44.35783" lon="3.90221">
        <ele>1301</ele>
        <time>2021-05-19T08:27:43+02:00</time>
      </trkpt>
      <trkpt lat="44.3581" lon="3.90168">
        <ele>1314</ele>
        <time>2021-05-19T08:27:48+02:00</time>
      </trkpt>
      <trkpt lat="44.3583" lon="3.90139">
        <ele>1317</ele>
        <time>2021-05-19T08:27:53+02:00</time>
      </trkpt>
      <trkpt lat="44.35845" lon="3.9012">
        <ele>1319</ele>
        <time>2021-05-19T08:27:58+02:00</time>
      </trkpt>
      <trkpt lat="44.35867" lon="3.90106">
        <ele>1325</ele>
        <time>2021-05-19T08:28:03+02:00</time>
      </trkpt>
      <trkpt lat="44.35914" lon="3.90115">
        <ele>1337</ele>
        <time>2021-05-19T08:28:08+02:00</time>
      </trkpt>
      <trkpt lat="44.35949" lon="3.90086">
        <ele>1348</ele>
        <time>2021-05-19T08:28:13+02:00</time>
      </trkpt>
      <trkpt lat="44.3598" lon="3.90065">
        <ele>1354</ele>
        <time>2021-05-19T08:28:18+02:00</time>
      </trkpt>
      <trkpt lat="44.36001" lon="3.9005">
        <ele>1359</ele>
        <time>2021-05-19T08:28:23+02:00</time>
      </trkpt>
      <trkpt lat="44.36024" lon="3.90041">
        <ele>1365</ele>
        <time>2021-05-19T08:28:28+02:00</time>
      </trkpt>
      <trkpt lat="44.36043" lon="3.90002">
        <ele>1367</ele>
        <time>2021-05-19T08:28:33+02:00</time>
      </trkpt>
      <trkpt lat="44.36074" lon="3.89949">
        <ele>1371</ele>
        <time>2021-05-19T08:28:38+02:00</time>
      </trkpt>
      <trkpt lat="44.36097" lon="3.8987">
        <ele>1367</ele>
        <time>2021-05-19T08:28:43+02:00</time>
      </trkpt>
      <trkpt lat="44.36122" lon="3.89813">
        <ele>1366</ele>
        <time>2021-05-19T08:28:48+02:00</time>
      </trkpt>
      <trkpt lat="44.3614" lon="3.89759">
        <ele>1366</ele>
        <time>2021-05-19T08:28:53+02:00</time>
      </trkpt>
      <trkpt lat="44.36141" lon="3.89716">
        <ele>1369</ele>
        <time>2021-05-19T08:28:58+02:00</time>
      </trkpt>
      <trkpt lat="44.36119" lon="3.89665">
        <ele>1370</ele>
        <time>2021-05-19T08:29:03+02:00</time>
      </trkpt>
      <trkpt lat="44.3614" lon="3.89639">
        <ele>1375</ele>
        <time>2021-05-19T08:29:08+02:00</time>
      </trkpt>
      <trkpt lat="44.36131" lon="3.89614">
        <ele>1374</ele>
        <time>2021-05-19T08:29:13+02:00</time>
      </trkpt>
      <trkpt lat="44.36141" lon="3.89571">
        <ele>1377</ele>
        <time>2021-05-19T08:29:18+02:00</time>
      </trkpt>
      <trkpt lat="44.3616" lon="3.89537">
        <ele>1381</ele>
        <time>2021-05-19T08:29:23+02:00</time>
      </trkpt>
      <trkpt lat="44.36211" lon="3.89534">
        <ele>1393</ele>
        <time>2021-05-19T08:29:28+02:00</time>
      </trkpt>
      <trkpt lat="44.36247" lon="3.89507">
        <ele>1403</ele>
        <time>2021-05-19T08:29:33+02:00</time>
      </trkpt>
      <trkpt lat="44.36264" lon="3.89495">
        <ele>1405</ele>
        <time>2021-05-19T08:29:38+02:00</time>
      </trkpt>
      <trkpt lat="44.36288" lon="3.89482">
        <ele>1407</ele>
        <time>2021-05-19T08:29:43+02:00</time>
      </trkpt>
      <trkpt lat="44.36284" lon="3.89406">
        <ele>1398</ele>
        <time>2021-05-19T08:29:48+02:00</time>
      </trkpt>
      <trkpt lat="44.36258" lon="3.89346">
        <ele>1385</ele>
        <time>2021-05-19T08:29:53+02:00</time>
      </trkpt>
      <trkpt lat="44.36248" lon="3.89325">
        <ele>1379</ele>
        <time>2021-05-19T08:29:58+02:00</time>
      </trkpt>
      <trkpt lat="44.36256" lon="3.89284">
        <ele>1373</ele>
        <time>2021-05-19T08:30:03+02:00</time>
      </trkpt>
      <trkpt lat="44.36294" lon="3.89328">
        <ele>1388</ele>
        <time>2021-05-19T08:30:08+02:00</time>
      </trkpt>
      <trkpt lat="44.36325" lon="3.89353">
        <ele>1397</ele>
        <time>2021-05-19T08:30:13+02:00</time>
      </trkpt>
      <trkpt lat="44.36368" lon="3.8938">
        <ele>1405</ele>
        <time>2021-05-19T08:30:18+02:00</time>
      </trkpt>
      <trkpt lat="44.36443" lon="3.89534">
        <ele>1415</ele>
        <time>2021-05-19T08:30:23+02:00</time>
      </trkpt>
      <trkpt lat="44.36446" lon="3.89601">
        <ele>1411</ele>
        <time>2021-05-19T08:30:28+02:00</time>
      </trkpt>
      <trkpt lat="44.36455" lon="3.89639">
        <ele>1410</ele>
        <time>2021-05-19T08:30:33+02:00</time>
      </trkpt>
      <trkpt lat="44.36464" lon="3.89717">
        <ele>1411</ele>
        <time>2021-05-19T08:30:38+02:00</time>
      </trkpt>
      <trkpt lat="44.36438" lon="3.89788">
        <ele>1409</ele>
        <time>2021-05-19T08:30:43+02:00</time>
      </trkpt>
      <trkpt lat="44.36433" lon="3.89837">
        <ele>1408</ele>
        <time>2021-05-19T08:30:48+02:00</time>
      </trkpt>
      <trkpt lat="44.36465" lon="3.89909">
        <ele>1404</ele>
        <time>2021-05-19T08:30:53+02:00</time>
      </trkpt>
      <trkpt lat="44.36525" lon="3.89984">
        <ele>1395</ele>
        <time>2021-05-19T08:30:58+02:00</time>
      </trkpt>
      <trkpt lat="44.36573" lon="3.90084">
        <ele>1388</ele>
        <time>2021-05-19T08:31:03+02:00</time>
      </trkpt>
      <trkpt lat="44.36598" lon="3.90181">
        <ele>1381</ele>
        <time>2021-05-19T08:31:08+02:00</time>
      </trkpt>
      <trkpt lat="44.36594" lon="3.90224">
        <ele>1379</ele>
        <time>2021-05-19T08:31:13+02:00</time>
      </trkpt>
      <trkpt lat="44.36578" lon="3.90274">
        <ele>1375</ele>
        <time>2021-05-19T08:31:18+02:00</time>
      </trkpt>
      <trkpt lat="44.36564" lon="3.90308">
        <ele>1372</ele>
        <time>2021-05-19T08:31:23+02:00</time>
      </trkpt>
      <trkpt lat="44.36547" lon="3.90342">
        <ele>1367</ele>
        <time>2021-05-19T08:31:28+02:00</time>
      </trkpt>
      <trkpt lat="44.36523" lon="3.90377">
        <ele>1361</ele>
        <time>2021-05-19T08:31:33+02:00</time>
      </trkpt>
      <trkpt lat="44.36504" lon="3.90388">
        <ele>1358</ele>
        <time>2021-05-19T08:31:38+02:00</time>
      </trkpt>
      <trkpt lat="44.36474" lon="3.90421">
        <ele>1352</ele>
        <time>2021-05-19T08:31:43+02:00</time>
      </trkpt>
      <trkpt lat="44.36475" lon="3.90453">
        <ele>1349</ele>
        <time>2021-05-19T08:31:48+02:00</time>
      </trkpt>
      <trkpt lat="44.36497" lon="3.90465">
        <ele>1349</ele>
        <time>2021-05-19T08:31:53+02:00</time>
      </trkpt>
      <trkpt lat="44.36518" lon="3.90477">
        <ele>1348</ele>
        <time>2021-05-19T08:31:58+02:00</time>
      </trkpt>
      <trkpt lat="44.36491" lon="3.90503">
        <ele>1344</ele>
        <time>2021-05-19T08:32:03+02:00</time>
      </trkpt>
      <trkpt lat="44.3646" lon="3.90524">
        <ele>1340</ele>
        <time>2021-05-19T08:32:08+02:00</time>
      </trkpt>
      <trkpt lat="44.36448" lon="3.90548">
        <ele>1336</ele>
        <time>2021-05-19T08:32:13+02:00</time>
      </trkpt>
      <trkpt lat="44.36425" lon="3.90524">
        <ele>1338</ele>
        <time>2021-05-19T08:32:18+02:00</time>
      </trkpt>
      <trkpt lat="44.36372" lon="3.90511">
        <ele>1328</ele>
        <time>2021-05-19T08:32:23+02:00</time>
      </trkpt>
      <trkpt lat="44.36331" lon="3.90655">
        <ele>1308</ele>
        <time>2021-05-19T08:32:28+02:00</time>
      </trkpt>
      <trkpt lat="44.36282" lon="3.90726">
        <ele>1296</ele>
        <time>2021-05-19T08:32:33+02:00</time>
      </trkpt>
      <trkpt lat="44.36234" lon="3.90774">
        <ele>1290</ele>
        <time>2021-05-19T08:32:38+02:00</time>
      </trkpt>
      <trkpt lat="44.36214" lon="3.90782">
        <ele>1287</ele>
        <time>2021-05-19T08:32:43+02:00</time>
      </trkpt>
      <trkpt lat="44.36244" lon="3.90793">
        <ele>1291</ele>
        <time>2021-05-19T08:32:48+02:00</time>
      </trkpt>
      <trkpt lat="44.36278" lon="3.9079">
        <ele>1293</ele>
        <time>2021-05-19T08:32:53+02:00</time>
      </trkpt>
      <trkpt lat="44.36283" lon="3.90802">
        <ele>1292</ele>
        <time>2021-05-19T08:32:58+02:00</time>
      </trkpt>
      <trkpt lat="44.36238" lon="3.90847">
        <ele>1290</ele>
        <time>2021-05-19T08:33:03+02:00</time>
      </trkpt>
      <trkpt lat="44.36187" lon="3.90897">
        <ele>1292</ele>
        <time>2021-05-19T08:33:08+02:00</time>
      </trkpt>
      <trkpt lat="44.36155" lon="3.90907">
        <ele>1290</ele>
        <time>2021-05-19T08:33:13+02:00</time>
      </trkpt>
      <trkpt lat="44.36116" lon="3.90959">
        <ele>1295</ele>
        <time>2021-05-19T08:33:18+02:00</time>
      </trkpt>
      <trkpt lat="44.36069" lon="3.90978">
        <ele>1291</ele>
        <time>2021-05-19T08:33:23+02:00</time>
      </trkpt>
      <trkpt lat="44.36004" lon="3.91057">
        <ele>1294</ele>
        <time>2021-05-19T08:33:28+02:00</time>
      </trkpt>
      <trkpt lat="44.35942" lon="3.91124">
        <ele>1295</ele>
        <time>2021-05-19T08:33:33+02:00</time>
      </trkpt>
      <trkpt lat="44.3591" lon="3.9113">
        <ele>1291</ele>
        <time>2021-05-19T08:33:38+02:00</time>
      </trkpt>
      <trkpt lat="44.35854" lon="3.91155">
        <ele>1291</ele>
        <time>2021-05-19T08:33:43+02:00</time>
      </trkpt>
      <trkpt lat="44.35828" lon="3.91168">
        <ele>1290</ele>
        <time>2021-05-19T08:33:48+02:00</time>
      </trkpt>
      <trkpt lat="44.35812" lon="3.91223">
        <ele>1288</ele>
        <time>2021-05-19T08:33:53+02:00</time>
      </trkpt>
      <trkpt lat="44.35786" lon="3.91259">
        <ele>1286</ele>
        <time>2021-05-19T08:33:58+02:00</time>
      </trkpt>
      <trkpt lat="44.3575" lon="3.91304">
        <ele>1281</ele>
        <time>2021-05-19T08:34:03+02:00</time>
      </trkpt>
      <trkpt lat="44.35747" lon="3.91347">
        <ele>1278</ele>
        <time>2021-05-19T08:34:08+02:00</time>
      </trkpt>
      <trkpt lat="44.35763" lon="3.91373">
        <ele>1277</ele>
        <time>2021-05-19T08:34:13+02:00</time>
      </trkpt>
      <trkpt lat="44.35766" lon="3.91382">
        <ele>1277</ele>
        <time>2021-05-19T08:34:18+02:00</time>
      </trkpt>
      <trkpt lat="44.35701" lon="3.91403">
        <ele>1270</ele>
        <time>2021-05-19T08:34:23+02:00</time>
      </trkpt>
      <trkpt lat="44.35693" lon="3.91438">
        <ele>1264</ele>
        <time>2021-05-19T08:34:28+02:00</time>
      </trkpt>
      <trkpt lat="44.35716" lon="3.91462">
        <ele>1263</ele>
        <time>2021-05-19T08:34:33+02:00</time>
      </trkpt>
      <trkpt lat="44.35652" lon="3.91474">
        <ele>1248</ele>
        <time>2021-05-19T08:34:38+02:00</time>
      </trkpt>
      <trkpt lat="44.3563" lon="3.91482">
        <ele>1241</ele>
        <time>2021-05-19T08:34:43+02:00</time>
      </trkpt>
      <trkpt lat="44.35674" lon="3.91542">
        <ele>1238</ele>
        <time>2021-05-19T08:34:48+02:00</time>
      </trkpt>
      <trkpt lat="44.35611" lon="3.91548">
        <ele>1219</ele>
        <time>2021-05-19T08:34:53+02:00</time>
      </trkpt>
      <trkpt lat="44.35469" lon="3.91512">
        <ele>1199</ele>
        <time>2021-05-19T08:34:58+02:00</time>
      </trkpt>
      <trkpt lat="44.35447" lon="3.91539">
        <ele>1192</ele>
        <time>2021-05-19T08:35:03+02:00</time>
      </trkpt>
      <trkpt lat="44.35436" lon="3.91603">
        <ele>1183</ele>
        <time>2021-05-19T08:35:08+02:00</time>
      </trkpt>
      <trkpt lat="44.35429" lon="3.91701">
        <ele>1172</ele>
        <time>2021-05-19T08:35:13+02:00</time>
      </trkpt>
      <trkpt lat="44.35473" lon="3.91677">
        <ele>1170</ele>
        <time>2021-05-19T08:35:18+02:00</time>
      </trkpt>
      <trkpt lat="44.35501" lon="3.91668">
        <ele>1169</ele>
        <time>2021-05-19T08:35:23+02:00</time>
      </trkpt>
      <trkpt lat="44.35523" lon="3.9173">
        <ele>1161</ele>
        <time>2021-05-19T08:35:28+02:00</time>
      </trkpt>
      <trkpt lat="44.3555" lon="3.91842">
        <ele>1137</ele>
        <time>2021-05-19T08:35:33+02:00</time>
      </trkpt>
      <trkpt lat="44.35524" lon="3.91837">
        <ele>1136</ele>
        <time>2021-05-19T08:35:38+02:00</time>
      </trkpt>
      <trkpt lat="44.35538" lon="3.91873">
        <ele>1127</ele>
        <time>2021-05-19T08:35:43+02:00</time>
      </trkpt>
      <trkpt lat="44.35569" lon="3.91904">
        <ele>1120</ele>
        <time>2021-05-19T08:35:48+02:00</time>
      </trkpt>
      <trkpt lat="44.35624" lon="3.9195">
        <ele>1119</ele>
        <time>2021-05-19T08:35:53+02:00</time>
      </trkpt>
      <trkpt lat="44.35532" lon="3.9198">
        <ele>1099</ele>
        <time>2021-05-19T08:35:58+02:00</time>
      </trkpt>
      <trkpt lat="44.35494" lon="3.91968">
        <ele>1101</ele>
        <time>2021-05-19T08:36:03+02:00</time>
      </trkpt>
      <trkpt lat="44.3547" lon="3.92014">
        <ele>1091</ele>
        <time>2021-05-19T08:36:08+02:00</time>
      </trkpt>
      <trkpt lat="44.35412" lon="3.92147">
        <ele>1061</ele>
        <time>2021-05-19T08:36:13+02:00</time>
      </trkpt>
      <trkpt lat="44.35412" lon="3.92172">
        <ele>1056</ele>
        <time>2021-05-19T08:36:18+02:00</time>
      </trkpt>
      <trkpt lat="44.35418" lon="3.92187">
        <ele>1053</ele>
        <time>2021-05-19T08:36:23+02:00</time>
      </trkpt>
      <trkpt lat="44.35361" lon="3.92212">
        <ele>1038</ele>
        <time>2021-05-19T08:36:28+02:00</time>
      </trkpt>
      <trkpt lat="44.35328" lon="3.92154">
        <ele>1043</ele>
        <time>2021-05-19T08:36:33+02:00</time>
      </trkpt>
      <trkpt lat="44.35318" lon="3.92152">
        <ele>1040</ele>
        <time>2021-05-19T08:36:38+02:00</time>
      </trkpt>
      <trkpt lat="44.35311" lon="3.92283">
        <ele>1010</ele>
        <time>2021-05-19T08:36:43+02:00</time>
      </trkpt>
      <trkpt lat="44.35286" lon="3.92265">
        <ele>1008</ele>
        <time>2021-05-19T08:36:48+02:00</time>
      </trkpt>
      <trkpt lat="44.35281" lon="3.92245">
        <ele>1011</ele>
        <time>2021-05-19T08:36:53+02:00</time>
      </trkpt>
      <trkpt lat="44.35259" lon="3.92274">
        <ele>998</ele>
        <time>2021-05-19T08:36:58+02:00</time>
      </trkpt>
      <trkpt lat="44.35239" lon="3.92229">
        <ele>997</ele>
        <time>2021-05-19T08:37:03+02:00</time>
      </trkpt>
      <trkpt lat="44.35226" lon="3.92314">
        <ele>978</ele>
        <time>2021-05-19T08:37:08+02:00</time>
      </trkpt>
      <trkpt lat="44.35239" lon="3.92369">
        <ele>969</ele>
        <time>2021-05-19T08:37:13+02:00</time>
      </trkpt>
      <trkpt lat="44.35185" lon="3.92317">
        <ele>962</ele>
        <time>2021-05-19T08:37:18+02:00</time>
      </trkpt>
      <trkpt lat="44.35196" lon="3.92369">
        <ele>956</ele>
        <time>2021-05-19T08:37:23+02:00</time>
      </trkpt>
      <trkpt lat="44.35234" lon="3.92444">
        <ele>947</ele>
        <time>2021-05-19T08:37:28+02:00</time>
      </trkpt>
      <trkpt lat="44.35206" lon="3.92447">
        <ele>940</ele>
        <time>2021-05-19T08:37:33+02:00</time>
      </trkpt>
      <trkpt lat="44.35183" lon="3.92433">
        <ele>937</ele>
        <time>2021-05-19T08:37:38+02:00</time>
      </trkpt>
      <trkpt lat="44.35244" lon="3.92529">
        <ele>926</ele>
        <time>2021-05-19T08:37:43+02:00</time>
      </trkpt>
      <trkpt lat="44.3516" lon="3.92555">
        <ele>912</ele>
        <time>2021-05-19T08:37:48+02:00</time>
      </trkpt>
      <trkpt lat="44.35117" lon="3.92623">
        <ele>900</ele>
        <time>2021-05-19T08:37:53+02:00</time>
      </trkpt>
      <trkpt lat="44.35081" lon="3.92682">
        <ele>894</ele>
        <time>2021-05-19T08:37:58+02:00</time>
      </trkpt>
      <trkpt lat="44.35038" lon="3.92688">
        <ele>890</ele>
        <time>2021-05-19T08:38:03+02:00</time>
      </trkpt>
      <trkpt lat="44.35001" lon="3.92709">
        <ele>888</ele>
        <time>2021-05-19T08:38:08+02:00</time>
      </trkpt>
      <trkpt lat="44.34978" lon="3.92717">
        <ele>884</ele>
        <time>2021-05-19T08:38:13+02:00</time>
      </trkpt>
      <trkpt lat="44.34946" lon="3.92754">
        <ele>878</ele>
        <time>2021-05-19T08:38:18+02:00</time>
      </trkpt>
      <trkpt lat="44.34964" lon="3.92788">
        <ele>877</ele>
        <time>2021-05-19T08:38:23+02:00</time>
      </trkpt>
      <trkpt lat="44.34943" lon="3.9279">
        <ele>872</ele>
        <time>2021-05-19T08:38:28+02:00</time>
      </trkpt>
      <trkpt lat="44.34963" lon="3.92817">
        <ele>872</ele>
        <time>2021-05-19T08:38:33+02:00</time>
      </trkpt>
      <trkpt lat="44.35001" lon="3.92835">
        <ele>875</ele>
        <time>2021-05-19T08:38:38+02:00</time>
      </trkpt>
      <trkpt lat="44.35039" lon="3.92858">
        <ele>868</ele>
        <time>2021-05-19T08:38:43+02:00</time>
      </trkpt>
      <trkpt lat="44.35033" lon="3.92894">
        <ele>859</ele>
        <time>2021-05-19T08:38:48+02:00</time>
      </trkpt>
      <trkpt lat="44.35005" lon="3.92903">
        <ele>856</ele>
        <time>2021-05-19T08:38:53+02:00</time>
      </trkpt>
      <trkpt lat="44.35075" lon="3.92967">
        <ele>842</ele>
        <time>2021-05-19T08:38:58+02:00</time>
      </trkpt>
      <trkpt lat="44.34998" lon="3.92982">
        <ele>835</ele>
        <time>2021-05-19T08:39:03+02:00</time>
      </trkpt>
      <trkpt lat="44.34949" lon="3.92949">
        <ele>838</ele>
        <time>2021-05-19T08:39:08+02:00</time>
      </trkpt>
      <trkpt lat="44.34884" lon="3.92937">
        <ele>826</ele>
        <time>2021-05-19T08:39:13+02:00</time>
      </trkpt>
      <trkpt lat="44.34833" lon="3.92835">
        <ele>825</ele>
        <time>2021-05-19T08:39:18+02:00</time>
      </trkpt>
    </trkseg>
  </trk>
</gpx>